createdAt,value
2022-09-18T00:01:48.253Z,6.03
2022-09-18T00:04:16.632Z,13.90
2022-09-18T00:06:46.113Z,7.50
2022-09-18T00:09:17.049Z,9.75
2022-09-18T00:11:47.910Z,7.80
2022-09-18T00:14:24.427Z,6.85
2022-09-18T00:16:52.719Z,5.25
2022-09-18T00:19:22.206Z,8.20
2022-09-18T00:21:51.913Z,7.30
2022-09-18T00:24:23.352Z,9.23
2022-09-18T00:26:51.523Z,6.20
2022-09-18T00:29:19.962Z,12.43
2022-09-18T00:31:51.116Z,7.22
2022-09-18T00:34:19.432Z,6.63
2022-09-18T00:36:47.715Z,8.45
2022-09-18T00:39:16.268Z,7.07
2022-09-18T00:41:46.169Z,5.50
2022-09-18T00:44:42.399Z,8.02
2022-09-18T00:47:25.081Z,9.02
2022-09-18T00:50:00.545Z,8.07
2022-09-18T00:52:39.739Z,14.98
2022-09-18T00:55:11.337Z,9.55
2022-09-18T00:57:44.426Z,7.15
2022-09-18T01:00:16.148Z,8.98
2022-09-18T01:02:46.178Z,12.98
2022-09-18T01:05:18.074Z,10.48
2022-09-18T01:08:01.645Z,8.95
2022-09-18T01:10:41.246Z,6.65
2022-09-18T01:13:19.359Z,8.57
2022-09-18T01:15:53.563Z,10.95
2022-09-18T01:18:32.667Z,4.97
2022-09-18T01:21:15.594Z,7.03
2022-09-18T01:24:20.511Z,16.15
2022-09-18T01:26:55.837Z,5.72
2022-09-18T01:29:46.344Z,7.63
2022-09-18T01:32:26.625Z,7.00
2022-09-18T01:35:13.983Z,10.68
2022-09-18T01:37:56.088Z,8.48
2022-09-18T01:40:28.365Z,4.25
2022-09-18T01:43:00.299Z,4.43
2022-09-18T01:45:33.338Z,8.55
2022-09-18T01:48:04.447Z,9.68
2022-09-18T01:50:35.586Z,12.43
2022-09-18T01:53:08.051Z,10.65
2022-09-18T01:55:39.839Z,9.45
2022-09-18T01:58:11.250Z,6.68
2022-09-18T02:00:45.592Z,7.68
2022-09-18T02:03:17.285Z,7.57
2022-09-18T02:05:50.069Z,12.60
2022-09-18T02:08:23.012Z,8.02
2022-09-18T02:10:57.123Z,9.32
2022-09-18T02:13:29.895Z,4.78
2022-09-18T02:16:04.700Z,7.78
2022-09-18T02:18:41.009Z,10.27
2022-09-18T02:21:15.003Z,11.18
2022-09-18T02:23:44.873Z,5.43
2022-09-18T02:26:15.742Z,5.85
2022-09-18T02:28:45.875Z,7.63
2022-09-18T02:31:16.727Z,6.03
2022-09-18T02:33:45.021Z,4.53
2022-09-18T02:36:42.019Z,6.68
2022-09-18T02:39:26.976Z,7.07
2022-09-18T02:42:09.241Z,5.88
2022-09-18T02:44:44.546Z,9.07
2022-09-18T02:47:26.297Z,5.93
2022-09-18T02:50:04.455Z,11.02
2022-09-18T02:52:37.532Z,8.45
2022-09-18T02:55:11.599Z,6.15
2022-09-18T02:57:45.170Z,5.85
2022-09-18T03:00:18.784Z,7.40
2022-09-18T03:02:50.932Z,10.02
2022-09-18T03:05:19.493Z,8.57
2022-09-18T03:07:48.229Z,8.27
2022-09-18T03:10:16.739Z,5.45
2022-09-18T03:12:45.335Z,3.95
2022-09-18T03:15:13.683Z,5.38
2022-09-18T03:17:42.129Z,6.45
2022-09-18T03:20:13.079Z,4.68
2022-09-18T03:22:41.390Z,9.45
2022-09-18T03:25:12.591Z,9.73
2022-09-18T03:27:42.678Z,7.10
2022-09-18T03:30:11.959Z,4.90
2022-09-18T03:32:40.637Z,6.40
2022-09-18T03:35:09.828Z,4.78
2022-09-18T03:37:39.454Z,4.75
2022-09-18T03:40:09.491Z,9.48
2022-09-18T03:42:38.542Z,7.85
2022-09-18T03:45:08.030Z,7.32
2022-09-18T03:47:36.790Z,8.07
2022-09-18T03:50:06.693Z,6.75
2022-09-18T03:52:35.880Z,5.95
2022-09-18T03:55:06.228Z,6.22
2022-09-18T03:57:37.371Z,6.13
2022-09-18T04:00:07.398Z,12.75
2022-09-18T04:02:35.655Z,5.82
2022-09-18T04:05:04.389Z,7.75
2022-09-18T04:07:33.328Z,9.93
2022-09-18T04:10:01.613Z,6.75
2022-09-18T04:12:31.220Z,10.43
2022-09-18T04:14:59.566Z,9.05
2022-09-18T04:17:27.945Z,10.63
2022-09-18T04:19:59.400Z,8.18
2022-09-18T04:22:30.334Z,7.75
2022-09-18T04:24:58.567Z,12.52
2022-09-18T04:27:26.838Z,7.22
2022-09-18T04:29:56.518Z,9.70
2022-09-18T04:32:24.816Z,14.50
2022-09-18T04:34:53.033Z,12.45
2022-09-18T04:37:21.300Z,8.40
2022-09-18T04:39:49.521Z,8.60
2022-09-18T04:42:18.179Z,8.45
2022-09-18T04:44:47.294Z,4.80
2022-09-18T04:47:16.864Z,14.77
2022-09-18T04:49:45.025Z,6.78
2022-09-18T04:52:13.341Z,8.45
2022-09-18T04:54:41.681Z,10.68
2022-09-18T04:57:09.881Z,13.23
2022-09-18T04:59:38.170Z,11.23
2022-09-18T05:02:06.998Z,8.07
2022-09-18T05:04:37.530Z,8.55
2022-09-18T05:07:06.920Z,6.88
2022-09-18T05:09:35.142Z,10.07
2022-09-18T05:12:03.929Z,12.73
2022-09-18T05:14:32.134Z,7.18
2022-09-18T05:17:00.764Z,11.82
2022-09-18T05:19:29.368Z,9.63
2022-09-18T05:21:58.866Z,9.40
2022-09-18T05:24:27.135Z,12.40
2022-09-18T05:26:55.621Z,11.02
2022-09-18T05:29:23.995Z,9.07
2022-09-18T05:31:52.814Z,8.38
2022-09-18T05:34:21.061Z,8.35
2022-09-18T05:36:49.169Z,7.38
2022-09-18T05:39:18.847Z,5.00
2022-09-18T05:41:51.158Z,8.75
2022-09-18T05:44:19.943Z,6.65
2022-09-18T05:46:48.526Z,7.10
2022-09-18T05:49:17.056Z,8.20
2022-09-18T05:51:46.479Z,11.73
2022-09-18T05:54:14.990Z,14.02
2022-09-18T05:56:44.654Z,10.57
2022-09-18T05:59:12.928Z,5.15
2022-09-18T06:01:46.314Z,5.57
2022-09-18T06:04:15.298Z,11.30
2022-09-18T06:06:43.535Z,6.25
2022-09-18T06:09:11.771Z,5.10
2022-09-18T06:11:39.933Z,8.48
2022-09-18T06:14:09.661Z,7.47
2022-09-18T06:16:42.139Z,5.93
2022-09-18T06:19:10.700Z,5.55
2022-09-18T06:21:38.866Z,9.32
2022-09-18T06:24:07.523Z,5.57
2022-09-18T06:26:36.079Z,6.70
2022-09-18T06:29:04.780Z,6.18
2022-09-18T06:31:34.433Z,5.80
2022-09-18T06:34:02.979Z,3.85
2022-09-18T06:36:31.155Z,5.35
2022-09-18T06:38:59.404Z,4.90
2022-09-18T06:41:27.576Z,6.47
2022-09-18T06:43:56.203Z,3.20
2022-09-18T06:46:24.754Z,4.63
2022-09-18T06:48:57.465Z,3.75
2022-09-18T06:51:25.630Z,6.93
2022-09-18T06:53:53.840Z,5.22
2022-09-18T06:56:22.466Z,7.43
2022-09-18T06:58:53.314Z,7.60
2022-09-18T07:01:21.631Z,5.70
2022-09-18T07:03:50.178Z,17.17
2022-09-18T07:06:20.175Z,4.35
2022-09-18T07:08:48.329Z,6.07
2022-09-18T07:11:16.644Z,6.20
2022-09-18T07:13:45.202Z,3.95
2022-09-18T07:16:16.834Z,6.95
2022-09-18T07:18:46.710Z,2.78
2022-09-18T07:21:14.989Z,7.78
2022-09-18T07:23:44.617Z,6.88
2022-09-18T07:26:12.931Z,8.50
2022-09-18T07:28:41.793Z,7.63
2022-09-18T07:31:13.644Z,8.80
2022-09-18T07:33:42.229Z,9.13
2022-09-18T07:36:10.417Z,6.60
2022-09-18T07:38:45.319Z,5.95
2022-09-18T07:41:14.893Z,6.45
2022-09-18T07:43:43.121Z,8.02
2022-09-18T07:46:11.998Z,6.53
2022-09-18T07:48:40.371Z,5.72
2022-09-18T07:51:08.859Z,5.60
2022-09-18T07:53:37.567Z,5.43
2022-09-18T07:56:09.067Z,5.03
2022-09-18T07:58:39.012Z,4.78
2022-09-18T08:01:08.463Z,9.57
2022-09-18T08:03:41.232Z,6.82
2022-09-18T08:06:10.279Z,4.00
2022-09-18T08:08:38.487Z,5.97
2022-09-18T08:11:07.114Z,9.55
2022-09-18T08:13:35.287Z,6.05
2022-09-18T08:16:06.300Z,5.32
2022-09-18T08:18:36.198Z,5.10
2022-09-18T08:21:10.352Z,5.15
2022-09-18T08:23:39.139Z,5.60
2022-09-18T08:26:08.643Z,7.32
2022-09-18T08:28:36.877Z,4.88
2022-09-18T08:31:07.196Z,6.60
2022-09-18T08:33:35.764Z,4.75
2022-09-18T08:36:04.766Z,3.97
2022-09-18T08:38:46.974Z,5.00
2022-09-18T08:41:38.753Z,4.03
2022-09-18T08:44:11.539Z,5.82
2022-09-18T08:46:44.789Z,3.67
2022-09-18T08:49:24.451Z,5.68
2022-09-18T08:52:03.676Z,2.83
2022-09-18T08:54:44.966Z,4.20
2022-09-18T08:57:17.558Z,3.42
2022-09-18T08:59:50.332Z,5.03
2022-09-18T09:02:33.599Z,10.77
2022-09-18T09:05:07.374Z,5.80
2022-09-18T09:07:58.731Z,4.88
2022-09-18T09:10:41.567Z,6.13
2022-09-18T09:13:52.718Z,4.80
2022-09-18T09:16:31.179Z,3.92
2022-09-18T09:19:02.861Z,3.08
2022-09-18T09:21:48.261Z,4.00
2022-09-18T09:24:29.105Z,3.00
2022-09-18T09:26:58.112Z,4.85
2022-09-18T09:29:30.129Z,4.90
2022-09-18T09:32:04.807Z,3.55
2022-09-18T09:34:40.841Z,3.65
2022-09-18T09:37:18.204Z,6.43
2022-09-18T09:39:53.889Z,4.18
2022-09-18T09:42:27.943Z,4.63
2022-09-18T09:45:03.194Z,3.75
2022-09-18T09:51:00.001Z,4.13
2022-09-18T09:53:29.174Z,2.85
2022-09-18T09:56:06.491Z,5.20
2022-09-18T09:58:46.458Z,4.05
2022-09-18T10:01:23.114Z,3.42
2022-09-18T10:04:02.382Z,4.15
2022-09-18T10:06:44.422Z,5.13
2022-09-18T10:09:20.795Z,4.13
2022-09-18T10:11:57.569Z,3.33
2022-09-18T10:14:29.123Z,3.35
2022-09-18T10:16:59.189Z,2.40
2022-09-18T10:19:34.793Z,3.28
2022-09-18T10:22:07.539Z,2.40
2022-09-18T10:24:49.492Z,1.70
2022-09-18T10:27:19.053Z,3.90
2022-09-18T10:29:47.425Z,2.38
2022-09-18T10:32:33.760Z,3.60
2022-09-18T10:35:02.344Z,4.32
2022-09-18T10:37:42.193Z,2.53
2022-09-18T10:40:30.441Z,3.90
2022-09-18T10:43:00.552Z,2.67
2022-09-18T10:45:31.041Z,2.13
2022-09-18T10:48:15.398Z,3.83
2022-09-18T10:50:54.084Z,3.72
2022-09-18T10:53:34.304Z,4.15
2022-09-18T10:56:07.009Z,2.03
2022-09-18T10:58:36.233Z,2.78
2022-09-18T11:01:07.938Z,1.63
2022-09-18T11:03:41.536Z,1.52
2022-09-18T11:06:18.284Z,1.83
2022-09-18T11:08:50.877Z,1.27
2022-09-18T11:11:26.279Z,1.35
2022-09-18T11:14:01.331Z,1.10
2022-09-18T11:16:32.390Z,1.90
2022-09-18T11:19:14.702Z,0.50
2022-09-18T11:21:46.768Z,2.70
2022-09-18T11:24:26.263Z,3.55
2022-09-18T11:26:56.838Z,1.58
2022-09-18T11:29:31.173Z,3.13
2022-09-18T11:32:13.957Z,1.48
2022-09-18T11:34:49.874Z,2.47
2022-09-18T11:37:28.934Z,1.63
2022-09-18T11:40:04.372Z,1.38
2022-09-18T11:42:33.349Z,1.27
2022-09-18T11:45:27.978Z,1.50
2022-09-18T11:48:04.221Z,0.50
2022-09-18T11:50:35.137Z,1.67
2022-09-18T11:53:15.921Z,2.10
2022-09-18T11:55:51.555Z,2.70
2022-09-18T11:58:24.191Z,0.73
2022-09-18T12:01:05.338Z,1.30
2022-09-18T12:03:40.716Z,2.30
2022-09-18T12:06:14.095Z,1.05
2022-09-18T12:08:49.133Z,1.95
2022-09-18T12:11:26.425Z,0.90
2022-09-18T12:14:02.330Z,2.47
2022-09-18T12:16:47.683Z,3.17
2022-09-18T12:19:21.095Z,1.58
2022-09-18T12:21:56.025Z,1.27
2022-09-18T12:24:24.771Z,5.55
2022-09-18T12:27:13.115Z,3.83
2022-09-18T12:30:13.152Z,2.42
2022-09-18T12:33:13.499Z,2.50
2022-09-18T12:36:17.236Z,1.73
2022-09-18T12:39:01.145Z,1.63
2022-09-18T12:41:44.313Z,3.17
2022-09-18T12:44:34.423Z,1.90
2022-09-18T12:47:18.889Z,1.77
2022-09-18T12:50:14.877Z,0.77
2022-09-18T12:53:09.091Z,1.60
2022-09-18T12:55:57.714Z,1.33
2022-09-18T12:59:04.805Z,1.23
2022-09-18T13:01:41.877Z,1.95
2022-09-18T13:04:41.413Z,0.90
2022-09-18T13:07:15.798Z,0.57
2022-09-18T13:09:51.672Z,0.82
2022-09-18T13:12:25.988Z,0.85
2022-09-18T13:14:59.549Z,1.60
2022-09-18T13:17:37.791Z,0.95
2022-09-18T13:20:15.816Z,1.02
2022-09-18T13:22:53.895Z,2.13
2022-09-18T13:25:32.868Z,4.78
2022-09-18T13:28:05.007Z,2.45
2022-09-18T13:30:33.965Z,1.27
2022-09-18T13:33:06.886Z,342.77
2022-09-18T13:35:39.568Z,272.55
2022-09-18T13:38:17.807Z,307.60
2022-09-18T13:40:49.081Z,1003.47
2022-09-18T13:43:39.702Z,881.47
2022-09-18T13:46:10.503Z,149.80
2022-09-18T13:48:46.911Z,31.85
2022-09-18T13:51:22.587Z,138.75
2022-09-18T13:54:17.911Z,3.50
2022-09-18T13:57:19.906Z,0.77
2022-09-18T13:59:56.238Z,0.40
2022-09-18T14:02:30.169Z,0.98
2022-09-18T14:05:06.595Z,0.63
2022-09-18T14:08:04.496Z,3.78
2022-09-18T14:10:37.536Z,1.35
2022-09-18T14:13:21.979Z,2.38
2022-09-18T14:15:56.676Z,1.38
2022-09-18T14:18:28.264Z,2.78
2022-09-18T14:21:13.950Z,1.33
2022-09-18T14:24:25.236Z,0.82
2022-09-18T14:27:00.032Z,0.60
2022-09-18T14:29:43.854Z,1.85
2022-09-18T14:32:28.734Z,2.38
2022-09-18T14:35:44.335Z,1.48
2022-09-18T14:58:01.211Z,1.40
2022-09-18T15:00:34.517Z,2.28
2022-09-18T15:03:06.132Z,1.60
2022-09-18T15:05:35.151Z,4.22
2022-09-18T15:08:05.673Z,0.93
2022-09-18T15:10:38.198Z,0.88
2022-09-18T15:13:10.416Z,0.93
2022-09-18T15:15:43.154Z,2.40
2022-09-18T15:18:23.548Z,0.93
2022-09-18T15:20:53.080Z,1.13
2022-09-18T15:23:25.820Z,0.55
2022-09-18T15:25:58.891Z,1.08
2022-09-18T15:28:29.031Z,1.33
2022-09-18T15:31:03.780Z,1.40
2022-09-18T15:33:34.207Z,2.58
2022-09-18T15:36:04.897Z,4.97
2022-09-18T15:38:41.884Z,8.93
2022-09-18T15:41:24.901Z,3.38
2022-09-18T15:43:53.601Z,1.70
2022-09-18T15:46:28.723Z,1.58
2022-09-18T15:49:00.481Z,1.52
2022-09-18T15:51:30.186Z,0.98
2022-09-18T15:54:09.643Z,1.23
2022-09-18T15:56:51.321Z,0.50
2022-09-18T15:59:26.076Z,2.38
2022-09-18T16:01:56.113Z,4.00
2022-09-18T16:04:27.080Z,5.78
2022-09-18T16:07:03.713Z,6.22
2022-09-18T16:09:40.216Z,1.70
2022-09-18T16:12:38.240Z,3.75
2022-09-18T16:15:18.667Z,2.00
2022-09-18T16:18:23.280Z,0.82
2022-09-18T16:21:12.276Z,0.80
2022-09-18T16:23:50.489Z,2.58
2022-09-18T16:26:29.313Z,2.75
2022-09-18T16:29:01.621Z,1.67
2022-09-18T16:31:35.168Z,2.15
2022-09-18T16:34:06.869Z,3.83
2022-09-18T16:36:39.559Z,4.38
2022-09-18T16:39:09.361Z,3.28
2022-09-18T16:41:38.388Z,3.90
2022-09-18T16:44:11.593Z,2.00
2022-09-18T16:46:46.462Z,2.80
2022-09-18T16:49:19.872Z,3.67
2022-09-18T16:51:48.062Z,5.22
2022-09-18T16:54:16.392Z,1.23
2022-09-18T16:56:51.958Z,3.83
2022-09-18T16:59:21.839Z,4.32
2022-09-18T17:02:03.286Z,2.33
2022-09-18T17:04:34.730Z,2.22
2022-09-18T17:07:03.983Z,5.18
2022-09-18T17:09:32.716Z,4.65
2022-09-18T17:12:02.775Z,2.42
2022-09-18T17:14:31.132Z,7.90
2022-09-18T17:16:59.360Z,2.78
2022-09-18T17:19:28.425Z,4.55
2022-09-18T17:21:58.113Z,7.45
2022-09-18T17:24:28.011Z,2.38
2022-09-18T17:26:56.358Z,4.38
2022-09-18T17:29:24.656Z,2.75
2022-09-18T17:31:53.348Z,4.78
2022-09-18T17:34:22.202Z,5.20
2022-09-18T17:36:50.830Z,2.67
2022-09-18T17:39:20.484Z,4.57
2022-09-18T17:41:50.145Z,3.25
2022-09-18T17:44:19.875Z,5.22
2022-09-18T17:46:51.520Z,3.53
2022-09-18T17:49:20.356Z,3.88
2022-09-18T17:51:49.166Z,2.13
2022-09-18T17:54:20.711Z,2.95
2022-09-18T17:56:49.189Z,3.10
2022-09-18T17:59:18.416Z,2.45
2022-09-18T18:01:48.731Z,5.28
2022-09-18T18:04:17.878Z,3.20
2022-09-18T18:06:48.367Z,3.25
2022-09-18T18:09:17.147Z,3.53
2022-09-18T18:11:48.249Z,3.38
2022-09-18T18:14:24.715Z,3.60
2022-09-18T18:17:00.000Z,3.45
2022-09-18T18:19:29.028Z,7.88
2022-09-18T18:21:57.981Z,5.43
2022-09-18T18:24:26.848Z,4.47
2022-09-18T18:27:13.873Z,1.42
2022-09-18T18:29:42.368Z,4.95
2022-09-18T18:32:10.996Z,4.80
2022-09-18T18:34:39.640Z,5.47
2022-09-18T18:37:07.858Z,6.85
2022-09-18T18:39:36.167Z,5.47
2022-09-18T18:42:07.183Z,5.95
2022-09-18T18:44:44.484Z,6.85
2022-09-18T18:47:14.849Z,5.88
2022-09-18T18:49:44.753Z,6.47
2022-09-18T18:52:20.298Z,2.67
2022-09-18T18:54:51.165Z,2.88
2022-09-18T18:57:19.543Z,3.15
2022-09-18T18:59:52.529Z,4.25
2022-09-18T19:02:36.687Z,6.68
2022-09-18T19:05:10.551Z,5.00
2022-09-18T19:08:01.788Z,5.60
2022-09-18T19:10:30.034Z,5.03
2022-09-18T19:13:05.029Z,1.73
2022-09-18T19:15:38.589Z,4.03
2022-09-18T19:18:13.361Z,3.33
2022-09-18T19:20:42.960Z,3.60
2022-09-18T19:23:22.763Z,6.18
2022-09-18T19:25:52.600Z,2.20
2022-09-18T19:28:21.186Z,4.38
2022-09-18T19:30:55.715Z,1.80
2022-09-18T19:33:33.390Z,4.38
2022-09-18T19:36:06.881Z,4.60
2022-09-18T19:38:40.172Z,4.45
2022-09-18T19:41:15.973Z,4.70
2022-09-18T19:43:45.615Z,3.00
2022-09-18T19:46:20.998Z,6.40
2022-09-18T19:48:49.270Z,5.18
2022-09-18T19:51:20.616Z,5.28
